Elwin, IL (62532)

6:46 AM CST on March 04, 2015 (GMT -0600)
South Shores | Change Station
CLOSE
Current Station
Personal Weather Station
Location: Decatur, IL
Elevation: 699 ft
Nearby Weather Stations

Elev 699 ft 39.81 °N, 88.95 °W | Updated 10 seconds ago

Overcast
Overcast
17.8 °F
Feels Like 18 °F
N
2.7
Wind Variable Wind from NE
Gusts 4.9 mph

Today
High -- | Low -- °F
--% Chance of Precip.
Yesterday
High -- | Low -- °F
Precip. -- in
6:24 AM 5:50 PM
Waxing Gibbous, 99% visible
Pressure 30.09 in
Visibility 10.0 miles
Clouds Clear
Windchill 18 °F
Dew Point 6 °F
Humidity 59%
Rainfall 0.00 in
Snow Depth Not available.
UV 0.0 out of 12
Pollen .40 out of 12
Air Quality Not available.
Flu Activity Not available.
METAR KDEC 041154Z 32018G24KT 10SM CLR M07/M11 A3006 RMK AO2 PK WND 31027/1125 SLP187 70014 T10671111 10011 21067 53021

More Conditions Fewer Conditions

Pressure 30.09 in
Visibility 10.0 miles
Clouds Clear
Windchill 18 °F
Dew Point 6 °F
Humidity 59%
Rainfall 0.00 in
Snow Depth Not available.
UV 0.0 out of 12
Pollen .40 out of 12
Air Quality Not available.
Flu Activity Not available.
METAR KDEC 041154Z 32018G24KT 10SM CLR M07/M11 A3006 RMK AO2 PK WND 31027/1125 SLP187 70014 T10671111 10011 21067 53021

More Conditions Fewer Conditions

10-Day Weather Forecast

Almanac

Astronomy

Mar. 04, 2015 Rise Set
Actual Time
Civil Twilight
Nautical Twilight
Astronomical Twilight
Moon
Length of Visible Light
Length of Day
Tomorrow will be .
, % of the Moon is Illuminated

Today's Extremes

State Highs State Lows

Community

WunderPhotos

Upload Photos

1,802,441 photos uploaded!

WunderBlogs® & News

Nearby

Air Quality

  Air Quality AQ Index Pollutant
Not available.

Snow Depth

Station Depth Elevation

Earthquake Activity

City Distance Mag. Time & Date
Minimum magnitude displayed is 2.5.

Coastal Water Temperatures

Place Temperature

Nearby Weather Stations